Time,TemperatureF,DewpointF,PressureIn,WindDirection,WindDirectionDegrees,WindSpeedMPH,WindSpeedGustMPH,Humidity,HourlyPrecipIn,Conditions,Clouds,dailyrainin,SolarRadiationWatts/m^2,SoftwareType,DateUTC
2013-06-18 00:00:00,54.4,48.7,29.79,West,264,0.0,0.0,81,0.00,,,0.00,0,Wunderground v.1.15,2013-06-18 06:00:00,
2013-06-18 00:06:00,54.2,48.2,29.79,West,264,0.0,1.0,80,0.00,,,0.00,0,Wunderground v.1.15,2013-06-18 06:06:00,
2013-06-18 00:12:00,54.2,48.5,29.79,West,264,0.0,0.0,81,0.00,,,0.00,0,Wunderground v.1.15,2013-06-18 06:12:00,
2013-06-18 00:17:00,54.1,48.4,29.79,West,264,0.0,0.0,81,0.00,,,0.00,0,Wunderground v.1.15,2013-06-18 06:17:00,
2013-06-18 00:23:00,54.0,48.6,29.79,West,264,0.0,1.0,82,0.00,,,0.00,0,Wunderground v.1.15,2013-06-18 06:23:00,
2013-06-18 00:28:00,53.8,48.4,29.79,West,264,0.0,1.0,82,0.00,,,0.00,0,Wunderground v.1.15,2013-06-18 06:28:00,
2013-06-18 00:34:00,53.6,48.2,29.79,West,264,0.0,0.0,82,0.00,,,0.00,0,Wunderground v.1.15,2013-06-18 06:34:00,
2013-06-18 00:40:00,53.4,48.0,29.79,West,264,0.0,1.0,82,0.00,,,0.00,0,Wunderground v.1.15,2013-06-18 06:40:00,
2013-06-18 00:46:00,53.2,48.2,29.79,West,264,0.0,1.0,83,0.00,,,0.00,0,Wunderground v.1.15,2013-06-18 06:46:00,
2013-06-18 00:52:00,53.0,48.0,29.79,West,264,0.0,2.0,83,0.00,,,0.00,0,Wunderground v.1.15,2013-06-18 06:52:00,
2013-06-18 00:58:00,52.8,47.8,29.79,West,264,0.0,2.0,83,0.00,,,0.00,0,Wunderground v.1.15,2013-06-18 06:58:00,
2013-06-18 01:04:00,52.6,47.9,29.79,West,264,1.0,2.0,84,0.00,,,0.00,0,Wunderground v.1.15,2013-06-18 07:04:00,
2013-06-18 01:10:00,52.5,48.1,29.79,West,264,1.0,1.0,85,0.00,,,0.00,0,Wunderground v.1.15,2013-06-18 07:10:00,
2013-06-18 01:16:00,52.3,47.9,29.79,West,264,1.0,2.0,85,0.00,,,0.00,0,Wunderground v.1.15,2013-06-18 07:16:00,
2013-06-18 01:22:00,52.1,47.7,29.79,West,264,0.0,1.0,85,0.00,,,0.00,0,Wunderground v.1.15,2013-06-18 07:22:00,
2013-06-18 01:28:00,52.0,47.9,29.79,West,264,0.0,1.0,86,0.00,,,0.00,0,Wunderground v.1.15,2013-06-18 07:28:00,
2013-06-18 01:33:00,52.0,48.3,29.80,West,264,0.0,0.0,87,0.00,,,0.00,0,Wunderground v.1.15,2013-06-18 07:33:00,
2013-06-18 01:39:00,52.0,48.3,29.79,West,264,0.0,1.0,87,0.00,,,0.00,0,Wunderground v.1.15,2013-06-18 07:39:00,
2013-06-18 01:45:00,52.0,47.9,29.79,West,264,0.0,1.0,86,0.00,,,0.00,0,Wunderground v.1.15,2013-06-18 07:45:00,
2013-06-18 01:51:00,52.1,48.0,29.79,West,264,0.0,0.0,86,0.00,,,0.00,0,Wunderground v.1.15,2013-06-18 07:51:00,
2013-06-18 01:57:00,52.3,48.5,29.79,West,264,1.0,1.0,87,0.00,,,0.00,0,Wunderground v.1.15,2013-06-18 07:57:00,
2013-06-18 02:03:00,52.4,48.3,29.79,West,264,0.0,0.0,86,0.00,,,0.00,0,Wunderground v.1.15,2013-06-18 08:03:00,
2013-06-18 02:09:00,52.5,48.4,29.79,West,264,0.0,1.0,86,0.00,,,0.00,0,Wunderground v.1.15,2013-06-18 08:09:00,
2013-06-18 02:15:00,52.7,48.6,29.79,West,264,0.0,0.0,86,0.00,,,0.00,0,Wunderground v.1.15,2013-06-18 08:15:00,
2013-06-18 02:21:00,52.7,48.6,29.79,West,264,0.0,0.0,86,0.00,,,0.00,0,Wunderground v.1.15,2013-06-18 08:21:00,
2013-06-18 02:27:00,52.5,48.7,29.78,West,264,0.0,0.0,87,0.00,,,0.00,0,Wunderground v.1.15,2013-06-18 08:27:00,
2013-06-18 02:32:00,52.4,48.6,29.79,West,264,0.0,0.0,87,0.00,,,0.00,0,Wunderground v.1.15,2013-06-18 08:32:00,
2013-06-18 02:37:00,52.2,48.4,29.79,West,264,0.0,1.0,87,0.00,,,0.00,0,Wunderground v.1.15,2013-06-18 08:37:00,
2013-06-18 02:43:00,52.0,48.3,29.79,West,264,0.0,0.0,87,0.00,,,0.00,0,Wunderground v.1.15,2013-06-18 08:43:00,
2013-06-18 02:49:00,51.8,48.1,29.78,West,264,0.0,0.0,87,0.00,,,0.00,0,Wunderground v.1.15,2013-06-18 08:49:00,
2013-06-18 02:55:00,51.7,48.3,29.78,West,264,0.0,1.0,88,0.00,,,0.00,0,Wunderground v.1.15,2013-06-18 08:55:00,
2013-06-18 03:01:00,51.8,48.4,29.78,West,264,0.0,0.0,88,0.00,,,0.00,0,Wunderground v.1.15,2013-06-18 09:01:00,
2013-06-18 03:07:00,51.8,48.1,29.78,West,264,0.0,2.0,87,0.00,,,0.00,0,Wunderground v.1.15,2013-06-18 09:07:00,
2013-06-18 03:13:00,51.7,48.3,29.77,West,264,0.0,0.0,88,0.00,,,0.00,0,Wunderground v.1.15,2013-06-18 09:13:00,
2013-06-18 03:19:00,51.7,48.3,29.77,West,264,0.0,0.0,88,0.00,,,0.00,0,Wunderground v.1.15,2013-06-18 09:19:00,
2013-06-18 03:25:00,51.5,47.8,29.77,West,264,0.0,0.0,87,0.00,,,0.00,0,Wunderground v.1.15,2013-06-18 09:25:00,
2013-06-18 03:31:00,51.4,47.7,29.77,West,264,0.0,0.0,87,0.00,,,0.00,0,Wunderground v.1.15,2013-06-18 09:31:00,
2013-06-18 03:37:00,51.1,47.4,29.77,West,264,0.0,0.0,87,0.00,,,0.00,0,Wunderground v.1.15,2013-06-18 09:37:00,
2013-06-18 03:43:00,50.9,47.5,29.77,West,264,0.0,0.0,88,0.00,,,0.00,0,Wunderground v.1.15,2013-06-18 09:43:00,
2013-06-18 03:49:00,50.8,47.4,29.77,West,264,0.0,0.0,88,0.00,,,0.00,0,Wunderground v.1.15,2013-06-18 09:49:00,
2013-06-18 03:54:00,50.8,47.7,29.77,West,264,0.0,0.0,89,0.00,,,0.00,0,Wunderground v.1.15,2013-06-18 09:54:00,
2013-06-18 04:00:00,50.8,47.7,29.77,West,264,0.0,0.0,89,0.00,,,0.00,0,Wunderground v.1.15,2013-06-18 10:00:00,
2013-06-18 04:06:00,50.9,47.8,29.76,West,264,0.0,0.0,89,0.00,,,0.00,0,Wunderground v.1.15,2013-06-18 10:06:00,
2013-06-18 04:12:00,50.9,47.8,29.76,West,264,0.0,1.0,89,0.00,,,0.00,0,Wunderground v.1.15,2013-06-18 10:12:00,
2013-06-18 04:18:00,50.9,47.8,29.76,West,264,0.0,1.0,89,0.00,,,0.00,0,Wunderground v.1.15,2013-06-18 10:18:00,
2013-06-18 04:24:00,50.8,47.7,29.76,West,264,0.0,0.0,89,0.00,,,0.00,0,Wunderground v.1.15,2013-06-18 10:24:00,
2013-06-18 04:30:00,50.8,47.7,29.76,SE,132,0.0,0.0,89,0.00,,,0.00,0,Wunderground v.1.15,2013-06-18 10:30:00,
2013-06-18 04:36:00,50.9,47.8,29.76,SW,219,1.0,4.0,89,0.00,,,0.00,0,Wunderground v.1.15,2013-06-18 10:36:00,
2013-06-18 04:42:00,51.0,47.6,29.76,SW,219,0.0,1.0,88,0.00,,,0.00,0,Wunderground v.1.15,2013-06-18 10:42:00,
2013-06-18 04:48:00,51.1,47.7,29.76,SW,219,0.0,3.0,88,0.00,,,0.00,0,Wunderground v.1.15,2013-06-18 10:48:00,
2013-06-18 04:54:00,51.3,47.9,29.76,SW,219,0.0,1.0,88,0.00,,,0.00,0,Wunderground v.1.15,2013-06-18 10:54:00,
2013-06-18 05:00:00,51.2,47.8,29.76,SW,219,0.0,0.0,88,0.00,,,0.00,0,Wunderground v.1.15,2013-06-18 11:00:00,
2013-06-18 05:06:00,51.0,47.6,29.76,SW,219,0.0,0.0,88,0.00,,,0.00,0,Wunderground v.1.15,2013-06-18 11:06:00,
2013-06-18 05:12:00,50.8,47.4,29.76,SW,220,0.0,0.0,88,0.00,,,0.00,0,Wunderground v.1.15,2013-06-18 11:12:00,
2013-06-18 05:18:00,50.6,47.2,29.76,SW,219,0.0,2.0,88,0.00,,,0.00,0,Wunderground v.1.15,2013-06-18 11:18:00,
2013-06-18 05:24:00,50.4,47.0,29.76,SW,219,0.0,0.0,88,0.00,,,0.00,0,Wunderground v.1.15,2013-06-18 11:24:00,
2013-06-18 05:30:00,50.2,46.8,29.76,SW,220,0.0,0.0,88,0.00,,,0.00,0,Wunderground v.1.15,2013-06-18 11:30:00,
2013-06-18 05:35:00,50.0,46.6,29.76,SW,220,0.0,0.0,88,0.00,,,0.00,0,Wunderground v.1.15,2013-06-18 11:35:00,
2013-06-18 05:41:00,49.7,46.6,29.76,SW,220,0.0,0.0,89,0.00,,,0.00,0,Wunderground v.1.15,2013-06-18 11:41:00,
2013-06-18 05:47:00,49.6,46.5,29.76,SW,220,0.0,0.0,89,0.00,,,0.00,9,Wunderground v.1.15,2013-06-18 11:47:00,
2013-06-18 05:52:00,49.4,46.3,29.76,SW,220,0.0,0.0,89,0.00,,,0.00,14,Wunderground v.1.15,2013-06-18 11:52:00,
2013-06-18 05:58:00,49.4,46.6,29.76,SW,220,0.0,1.0,90,0.00,,,0.00,19,Wunderground v.1.15,2013-06-18 11:58:00,
2013-06-18 06:04:00,49.2,46.4,29.76,SW,219,0.0,1.0,90,0.00,,,0.00,28,Wunderground v.1.15,2013-06-18 12:04:00,
2013-06-18 06:10:00,49.2,46.4,29.76,SW,219,0.0,0.0,90,0.00,,,0.00,26,Wunderground v.1.15,2013-06-18 12:10:00,
2013-06-18 06:16:00,49.2,46.7,29.75,SW,220,0.0,0.0,91,0.00,,,0.00,33,Wunderground v.1.15,2013-06-18 12:16:00,
2013-06-18 06:22:00,49.4,46.9,29.75,SSW,205,0.0,2.0,91,0.00,,,0.00,70,Wunderground v.1.15,2013-06-18 12:22:00,
2013-06-18 06:28:00,49.6,47.1,29.75,NW,311,0.0,2.0,91,0.00,,,0.00,105,Wunderground v.1.15,2013-06-18 12:28:00,
2013-06-18 06:34:00,50.0,47.2,29.75,NW,311,0.0,1.0,90,0.00,,,0.00,102,Wunderground v.1.15,2013-06-18 12:34:00,
2013-06-18 06:40:00,50.5,47.4,29.75,NNE,19,0.0,0.0,89,0.00,,,0.00,125,Wunderground v.1.15,2013-06-18 12:40:00,
2013-06-18 06:46:00,50.9,47.5,29.75,NNE,19,0.0,0.0,88,0.00,,,0.00,97,Wunderground v.1.15,2013-06-18 12:46:00,
2013-06-18 06:52:00,51.5,48.1,29.75,NW,304,0.0,2.0,88,0.00,,,0.00,91,Wunderground v.1.15,2013-06-18 12:52:00,
2013-06-18 06:57:00,52.1,47.7,29.74,WNW,296,0.0,2.0,85,0.00,,,0.00,100,Wunderground v.1.15,2013-06-18 12:57:00,
2013-06-18 07:03:00,52.6,48.2,29.74,WNW,298,0.0,0.0,85,0.00,,,0.00,49,Wunderground v.1.15,2013-06-18 13:03:00,
2013-06-18 07:09:00,53.0,48.3,29.74,WNW,298,0.0,0.0,84,0.00,,,0.00,44,Wunderground v.1.15,2013-06-18 13:09:00,
2013-06-18 07:15:00,53.2,47.8,29.75,WNW,294,0.0,0.0,82,0.00,,,0.00,97,Wunderground v.1.15,2013-06-18 13:15:00,
2013-06-18 07:21:00,53.4,48.4,29.75,WNW,294,0.0,0.0,83,0.00,,,0.00,213,Wunderground v.1.15,2013-06-18 13:21:00,
2013-06-18 07:27:00,53.7,48.7,29.74,WNW,294,0.0,1.0,83,0.00,,,0.00,243,Wunderground v.1.15,2013-06-18 13:27:00,
2013-06-18 07:33:00,54.2,48.5,29.75,WNW,294,0.0,0.0,81,0.00,,,0.00,156,Wunderground v.1.15,2013-06-18 13:33:00,
2013-06-18 07:39:00,54.8,48.4,29.74,WNW,294,0.0,0.0,79,0.00,,,0.00,225,Wunderground v.1.15,2013-06-18 13:39:00,
2013-06-18 07:45:00,55.5,48.1,29.74,SW,217,0.0,0.0,76,0.00,,,0.00,274,Wunderground v.1.15,2013-06-18 13:45:00,
2013-06-18 07:51:00,56.2,48.0,29.74,SW,217,0.0,0.0,74,0.00,,,0.00,301,Wunderground v.1.15,2013-06-18 13:51:00,
2013-06-18 07:57:00,56.8,49.0,29.74,SW,217,0.0,0.0,75,0.00,,,0.00,265,Wunderground v.1.15,2013-06-18 13:57:00,
2013-06-18 08:03:00,57.4,49.2,29.74,SW,217,0.0,0.0,74,0.00,,,0.00,316,Wunderground v.1.15,2013-06-18 14:03:00,
2013-06-18 08:09:00,58.0,49.0,29.74,SW,217,0.0,1.0,72,0.00,,,0.00,327,Wunderground v.1.15,2013-06-18 14:09:00,
2013-06-18 08:15:00,58.7,49.3,29.74,SW,217,0.0,0.0,71,0.00,,,0.00,281,Wunderground v.1.15,2013-06-18 14:15:00,
2013-06-18 08:20:00,59.0,49.6,29.73,SW,217,0.0,0.0,71,0.00,,,0.00,330,Wunderground v.1.15,2013-06-18 14:20:00,
2013-06-18 08:26:00,59.3,49.5,29.73,SW,217,0.0,2.0,70,0.00,,,0.00,332,Wunderground v.1.15,2013-06-18 14:26:00,
2013-06-18 08:32:00,59.8,49.2,29.74,South,186,0.0,1.0,68,0.00,,,0.00,387,Wunderground v.1.15,2013-06-18 14:32:00,
2013-06-18 08:38:00,60.3,49.7,29.74,South,186,0.0,1.0,68,0.00,,,0.00,404,Wunderground v.1.15,2013-06-18 14:38:00,
2013-06-18 08:44:00,60.9,49.9,29.73,NE,42,0.0,0.0,67,0.00,,,0.00,408,Wunderground v.1.15,2013-06-18 14:44:00,
2013-06-18 08:50:00,61.4,50.7,29.73,NE,53,1.0,1.0,68,0.00,,,0.00,431,Wunderground v.1.15,2013-06-18 14:50:00,
2013-06-18 08:56:00,61.8,49.9,29.73,ENE,61,1.0,1.0,65,0.00,,,0.00,424,Wunderground v.1.15,2013-06-18 14:56:00,
2013-06-18 09:01:00,62.1,50.2,29.74,ENE,61,1.0,1.0,65,0.00,,,0.00,461,Wunderground v.1.15,2013-06-18 15:01:00,
2013-06-18 09:07:00,62.4,50.5,29.73,ENE,60,1.0,1.0,65,0.00,,,0.00,490,Wunderground v.1.15,2013-06-18 15:07:00,
2013-06-18 09:13:00,62.8,50.4,29.73,ENE,60,0.0,2.0,64,0.00,,,0.00,510,Wunderground v.1.15,2013-06-18 15:13:00,
2013-06-18 09:19:00,63.1,50.7,29.73,ENE,60,0.0,2.0,64,0.00,,,0.00,526,Wunderground v.1.15,2013-06-18 15:19:00,
2013-06-18 09:25:00,63.4,51.0,29.73,ENE,66,1.0,4.0,64,0.00,,,0.00,545,Wunderground v.1.15,2013-06-18 15:25:00,
2013-06-18 09:31:00,63.8,50.5,29.73,South,184,1.0,1.0,62,0.00,,,0.00,568,Wunderground v.1.15,2013-06-18 15:31:00,
2013-06-18 09:37:00,64.2,52.2,29.73,South,177,1.0,2.0,65,0.00,,,0.00,533,Wunderground v.1.15,2013-06-18 15:37:00,
2013-06-18 09:42:00,64.5,51.2,29.72,ENE,74,1.0,1.0,62,0.00,,,0.00,599,Wunderground v.1.15,2013-06-18 15:42:00,
2013-06-18 09:48:00,64.8,51.5,29.72,ENE,66,1.0,1.0,62,0.00,,,0.00,633,Wunderground v.1.15,2013-06-18 15:48:00,
2013-06-18 09:54:00,65.1,50.4,29.72,SE,145,1.0,2.0,59,0.00,,,0.00,606,Wunderground v.1.15,2013-06-18 15:54:00,
2013-06-18 10:00:00,65.5,50.8,29.72,SE,145,0.0,1.0,59,0.00,,,0.00,636,Wunderground v.1.15,2013-06-18 16:00:00,
2013-06-18 10:06:00,65.9,51.2,29.72,SE,145,0.0,1.0,59,0.00,,,0.00,642,Wunderground v.1.15,2013-06-18 16:06:00,
2013-06-18 10:12:00,66.5,51.7,29.71,ESE,113,0.0,3.0,59,0.00,,,0.00,585,Wunderground v.1.15,2013-06-18 16:12:00,
2013-06-18 10:18:00,66.8,52.0,29.71,ESE,113,1.0,3.0,59,0.00,,,0.00,654,Wunderground v.1.15,2013-06-18 16:18:00,
2013-06-18 10:24:00,67.2,52.4,29.71,ESE,113,0.0,1.0,59,0.00,,,0.00,654,Wunderground v.1.15,2013-06-18 16:24:00,
2013-06-18 10:30:00,67.5,51.7,29.70,ESE,113,0.0,0.0,57,0.00,,,0.00,668,Wunderground v.1.15,2013-06-18 16:30:00,
2013-06-18 10:36:00,67.9,51.1,29.70,ESE,113,0.0,1.0,55,0.00,,,0.00,673,Wunderground v.1.15,2013-06-18 16:36:00,
2013-06-18 10:42:00,68.5,53.6,29.70,ESE,117,0.0,2.0,59,0.00,,,0.00,624,Wunderground v.1.15,2013-06-18 16:42:00,
2013-06-18 10:48:00,69.1,53.2,29.69,NE,44,1.0,2.0,57,0.00,,,0.00,701,Wunderground v.1.15,2013-06-18 16:48:00,
2013-06-18 10:53:00,69.5,52.6,29.69,NE,44,0.0,2.0,55,0.00,,,0.00,728,Wunderground v.1.15,2013-06-18 16:53:00,
2013-06-18 10:58:00,69.7,52.3,29.69,ENE,60,1.0,5.0,54,0.00,,,0.00,742,Wunderground v.1.15,2013-06-18 16:58:00,
2013-06-18 11:04:00,69.9,53.0,29.69,ENE,69,1.0,6.0,55,0.00,,,0.00,701,Wunderground v.1.15,2013-06-18 17:04:00,
2013-06-18 11:10:00,70.3,53.9,29.69,ENE,71,1.0,1.0,56,0.00,,,0.00,793,Wunderground v.1.15,2013-06-18 17:10:00,
2013-06-18 11:16:00,70.6,53.1,29.69,NE,51,1.0,2.0,54,0.00,,,0.00,789,Wunderground v.1.15,2013-06-18 17:16:00,
2013-06-18 11:22:00,71.1,54.1,29.68,SE,134,0.0,1.0,55,0.00,,,0.00,708,Wunderground v.1.15,2013-06-18 17:22:00,
2013-06-18 11:28:00,71.5,53.5,29.69,North,5,1.0,2.0,53,0.00,,,0.00,807,Wunderground v.1.15,2013-06-18 17:28:00,
2013-06-18 11:34:00,71.9,54.3,29.69,North,9,1.0,1.0,54,0.00,,,0.00,758,Wunderground v.1.15,2013-06-18 17:34:00,
2013-06-18 11:40:00,72.4,53.8,29.69,WNW,291,1.0,2.0,52,0.00,,,0.00,807,Wunderground v.1.15,2013-06-18 17:40:00,
2013-06-18 11:46:00,72.6,51.2,29.69,NW,306,3.0,7.0,47,0.00,,,0.00,816,Wunderground v.1.15,2013-06-18 17:46:00,
2013-06-18 11:52:00,72.3,52.6,29.69,WNW,292,4.0,9.0,50,0.00,,,0.00,830,Wunderground v.1.15,2013-06-18 17:52:00,
2013-06-18 11:58:00,71.9,52.2,29.70,WNW,284,5.0,10.0,50,0.00,,,0.00,765,Wunderground v.1.15,2013-06-18 17:58:00,
2013-06-18 12:03:00,71.6,50.9,29.69,SSE,151,4.0,5.0,48,0.00,,,0.00,765,Wunderground v.1.15,2013-06-18 18:03:00,
2013-06-18 12:09:00,71.8,53.2,29.70,NW,325,2.0,5.0,52,0.00,,,0.00,896,Wunderground v.1.15,2013-06-18 18:09:00,
2013-06-18 12:15:00,72.0,53.4,29.69,NW,310,2.0,7.0,52,0.00,,,0.00,983,Wunderground v.1.15,2013-06-18 18:15:00,
2013-06-18 12:21:00,72.1,52.4,29.69,SSW,208,1.0,1.0,50,0.00,,,0.00,738,Wunderground v.1.15,2013-06-18 18:21:00,
2013-06-18 12:27:00,72.5,52.2,29.69,NNE,33,1.0,1.0,49,0.00,,,0.00,1000,Wunderground v.1.15,2013-06-18 18:27:00,
2013-06-18 12:33:00,73.0,53.8,29.69,NW,318,1.0,5.0,51,0.00,,,0.00,728,Wunderground v.1.15,2013-06-18 18:33:00,
2013-06-18 12:39:00,73.2,53.4,29.69,ESE,117,2.0,5.0,50,0.00,,,0.00,879,Wunderground v.1.15,2013-06-18 18:39:00,
2013-06-18 12:45:00,73.6,52.1,29.69,North,360,2.0,6.0,47,0.00,,,0.00,886,Wunderground v.1.15,2013-06-18 18:45:00,
2013-06-18 12:51:00,74.0,52.5,29.68,SW,234,2.0,4.0,47,0.00,,,0.00,863,Wunderground v.1.15,2013-06-18 18:51:00,
2013-06-18 12:57:00,74.3,52.8,29.68,NNW,333,3.0,7.0,47,0.00,,,0.00,886,Wunderground v.1.15,2013-06-18 18:57:00,
2013-06-18 13:03:00,74.6,52.4,29.68,SW,229,4.0,5.0,46,0.00,,,0.00,893,Wunderground v.1.15,2013-06-18 19:03:00,
2013-06-18 13:09:00,75.2,51.8,29.68,West,277,2.0,5.0,44,0.00,,,0.00,881,Wunderground v.1.15,2013-06-18 19:09:00,
2013-06-18 13:15:00,75.3,50.6,29.68,West,259,3.0,5.0,42,0.00,,,0.00,900,Wunderground v.1.15,2013-06-18 19:15:00,
2013-06-18 13:20:00,75.4,52.0,29.68,NW,318,4.0,5.0,44,0.00,,,0.00,795,Wunderground v.1.15,2013-06-18 19:20:00,
2013-06-18 13:26:00,75.2,50.5,29.68,WNW,283,4.0,9.0,42,0.00,,,0.00,731,Wunderground v.1.15,2013-06-18 19:26:00,
2013-06-18 13:31:00,75.1,51.1,29.68,West,273,5.0,5.0,43,0.00,,,0.00,751,Wunderground v.1.15,2013-06-18 19:31:00,
2013-06-18 13:37:00,75.0,52.2,29.67,NW,304,4.0,12.0,45,0.00,,,0.00,872,Wunderground v.1.15,2013-06-18 19:37:00,
2013-06-18 13:43:00,75.1,52.3,29.67,West,275,5.0,5.0,45,0.00,,,0.00,837,Wunderground v.1.15,2013-06-18 19:43:00,
2013-06-18 13:49:00,75.0,52.2,29.67,West,279,5.0,8.0,45,0.00,,,0.00,640,Wunderground v.1.15,2013-06-18 19:49:00,
2013-06-18 13:55:00,75.0,52.2,29.67,SSW,209,4.0,5.0,45,0.00,,,0.00,765,Wunderground v.1.15,2013-06-18 19:55:00,
2013-06-18 14:01:00,75.3,53.1,29.66,SSW,196,3.0,4.0,46,0.00,,,0.00,860,Wunderground v.1.15,2013-06-18 20:01:00,
2013-06-18 14:07:00,75.7,53.4,29.66,West,275,4.0,10.0,46,0.00,,,0.00,884,Wunderground v.1.15,2013-06-18 20:07:00,
2013-06-18 14:13:00,75.8,53.5,29.66,WSW,244,3.0,5.0,46,0.00,,,0.00,886,Wunderground v.1.15,2013-06-18 20:13:00,
2013-06-18 14:19:00,75.9,52.4,29.66,NE,48,5.0,10.0,44,0.00,,,0.00,793,Wunderground v.1.15,2013-06-18 20:19:00,
2013-06-18 14:25:00,76.2,53.9,29.66,WNW,283,4.0,7.0,46,0.00,,,0.00,733,Wunderground v.1.15,2013-06-18 20:25:00,
2013-06-18 14:31:00,76.4,52.9,29.65,West,259,3.0,4.0,44,0.00,,,0.00,870,Wunderground v.1.15,2013-06-18 20:31:00,
2013-06-18 14:37:00,76.5,53.0,29.65,WSW,257,4.0,10.0,44,0.00,,,0.00,367,Wunderground v.1.15,2013-06-18 20:37:00,
2013-06-18 14:43:00,76.1,52.6,29.65,WSW,254,4.0,7.0,44,0.00,,,0.00,387,Wunderground v.1.15,2013-06-18 20:43:00,
2013-06-18 14:48:00,75.8,54.7,29.65,WNW,301,3.0,7.0,48,0.00,,,0.00,575,Wunderground v.1.15,2013-06-18 20:48:00,
2013-06-18 14:54:00,76.0,54.3,29.65,West,275,2.0,5.0,47,0.00,,,0.00,682,Wunderground v.1.15,2013-06-18 20:54:00,
2013-06-18 15:00:00,76.5,52.3,29.65,NW,308,3.0,3.0,43,0.00,,,0.00,557,Wunderground v.1.15,2013-06-18 21:00:00,
2013-06-18 15:05:00,76.8,55.6,29.64,NW,325,3.0,4.0,48,0.00,,,0.00,635,Wunderground v.1.15,2013-06-18 21:05:00,
2013-06-18 15:11:00,77.0,54.6,29.64,NW,307,3.0,6.0,46,0.00,,,0.00,747,Wunderground v.1.15,2013-06-18 21:11:00,
2013-06-18 15:17:00,77.1,53.5,29.64,NW,313,4.0,7.0,44,0.00,,,0.00,826,Wunderground v.1.15,2013-06-18 21:17:00,
2013-06-18 15:23:00,77.5,52.6,29.64,NW,318,4.0,9.0,42,0.00,,,0.00,838,Wunderground v.1.15,2013-06-18 21:23:00,
2013-06-18 15:29:00,77.8,52.9,29.64,NNW,329,3.0,9.0,42,0.00,,,0.00,814,Wunderground v.1.15,2013-06-18 21:29:00,
2013-06-18 15:35:00,78.0,52.4,29.64,NW,309,3.0,8.0,41,0.00,,,0.00,647,Wunderground v.1.15,2013-06-18 21:35:00,
2013-06-18 15:41:00,78.2,53.9,29.63,West,265,3.0,3.0,43,0.00,,,0.00,838,Wunderground v.1.15,2013-06-18 21:41:00,
2013-06-18 15:47:00,78.7,52.3,29.64,SW,231,3.0,6.0,40,0.00,,,0.00,802,Wunderground v.1.15,2013-06-18 21:47:00,
2013-06-18 15:53:00,79.0,53.9,29.63,NNW,345,3.0,3.0,42,0.00,,,0.00,680,Wunderground v.1.15,2013-06-18 21:53:00,
2013-06-18 15:59:00,79.1,54.0,29.63,WNW,283,3.0,10.0,42,0.00,,,0.00,705,Wunderground v.1.15,2013-06-18 21:59:00,
2013-06-18 16:05:00,79.0,51.2,29.63,WSW,257,3.0,5.0,38,0.00,,,0.00,610,Wunderground v.1.15,2013-06-18 22:05:00,
2013-06-18 16:11:00,78.7,52.3,29.63,South,178,2.0,2.0,40,0.00,,,0.00,299,Wunderground v.1.15,2013-06-18 22:11:00,
2013-06-18 16:16:00,78.3,51.3,29.62,NNE,21,2.0,2.0,39,0.00,,,0.00,262,Wunderground v.1.15,2013-06-18 22:16:00,
2013-06-18 16:22:00,77.8,51.5,29.62,West,277,2.0,2.0,40,0.00,,,0.00,410,Wunderground v.1.15,2013-06-18 22:22:00,
2013-06-18 16:28:00,77.5,53.2,29.62,West,268,2.0,8.0,43,0.00,,,0.00,452,Wunderground v.1.15,2013-06-18 22:28:00,
2013-06-18 16:34:00,77.7,52.8,29.62,NW,323,2.0,5.0,42,0.00,,,0.00,624,Wunderground v.1.15,2013-06-18 22:34:00,
2013-06-18 16:39:00,78.1,53.8,29.61,West,259,1.0,5.0,43,0.00,,,0.00,496,Wunderground v.1.15,2013-06-18 22:39:00,
2013-06-18 16:45:00,78.7,52.3,29.60,NNW,346,1.0,4.0,40,0.00,,,0.00,701,Wunderground v.1.15,2013-06-18 22:45:00,
2013-06-18 16:51:00,79.0,51.2,29.59,West,266,2.0,2.0,38,0.00,,,0.00,640,Wunderground v.1.15,2013-06-18 22:51:00,
2013-06-18 16:57:00,79.4,52.3,29.59,WNW,288,2.0,8.0,39,0.00,,,0.00,680,Wunderground v.1.15,2013-06-18 22:57:00,
2013-06-18 17:02:00,79.8,50.5,29.59,WSW,250,2.0,2.0,36,0.00,,,0.00,654,Wunderground v.1.15,2013-06-18 23:02:00,
2013-06-18 17:08:00,80.3,49.4,29.59,NW,311,1.0,6.0,34,0.00,,,0.00,670,Wunderground v.1.15,2013-06-18 23:08:00,
2013-06-18 17:13:00,80.8,52.8,29.59,WNW,292,2.0,4.0,38,0.00,,,0.00,663,Wunderground v.1.15,2013-06-18 23:13:00,
2013-06-18 17:19:00,81.1,55.8,29.58,NW,322,2.0,4.0,42,0.00,,,0.00,591,Wunderground v.1.15,2013-06-18 23:19:00,
2013-06-18 17:24:00,81.1,51.6,29.58,WNW,296,2.0,8.0,36,0.00,,,0.00,659,Wunderground v.1.15,2013-06-18 23:24:00,
2013-06-18 17:29:00,81.0,55.1,29.57,WNW,291,2.0,8.0,41,0.00,,,0.00,668,Wunderground v.1.15,2013-06-18 23:29:00,
2013-06-18 17:34:00,81.1,54.5,29.57,WNW,302,2.0,2.0,40,0.00,,,0.00,666,Wunderground v.1.15,2013-06-18 23:34:00,
2013-06-18 17:40:00,81.2,52.4,29.57,SSE,164,1.0,1.0,37,0.00,,,0.00,388,Wunderground v.1.15,2013-06-18 23:40:00,
2013-06-18 17:46:00,81.2,52.4,29.58,NW,321,1.0,2.0,37,0.00,,,0.00,306,Wunderground v.1.15,2013-06-18 23:46:00,
2013-06-18 17:51:00,80.7,50.5,29.58,SSE,163,1.0,1.0,35,0.00,,,0.00,278,Wunderground v.1.15,2013-06-18 23:51:00,
2013-06-18 17:57:00,80.5,54.0,29.58,SSE,163,0.0,1.0,40,0.00,,,0.00,172,Wunderground v.1.15,2013-06-18 23:57:00,
2013-06-18 18:03:00,80.1,54.9,29.57,West,274,1.0,1.0,42,0.00,,,0.00,188,Wunderground v.1.15,2013-06-19 00:03:00,
2013-06-18 18:09:00,79.6,53.1,29.58,SSW,198,0.0,1.0,40,0.00,,,0.00,114,Wunderground v.1.15,2013-06-19 00:09:00,
2013-06-18 18:15:00,79.1,54.0,29.59,SSW,198,0.0,0.0,42,0.00,,,0.00,37,Wunderground v.1.15,2013-06-19 00:15:00,
2013-06-18 18:20:00,78.7,56.8,29.59,SSW,198,0.0,0.0,47,0.00,,,0.00,25,Wunderground v.1.15,2013-06-19 00:20:00,
2013-06-18 18:26:00,78.4,58.2,29.59,SSW,198,0.0,0.0,50,0.00,,,0.00,23,Wunderground v.1.15,2013-06-19 00:26:00,
2013-06-18 18:31:00,77.9,58.3,29.59,SSW,198,0.0,0.0,51,0.00,,,0.00,23,Wunderground v.1.15,2013-06-19 00:31:00,
2013-06-18 18:37:00,77.2,59.8,29.59,SSW,198,0.0,0.0,55,0.00,,,0.00,16,Wunderground v.1.15,2013-06-19 00:37:00,
2013-06-18 18:43:00,76.4,58.5,29.59,SSW,198,0.0,0.0,54,0.00,,,0.00,7,Wunderground v.1.15,2013-06-19 00:43:00,
2013-06-18 18:49:00,75.3,59.5,29.59,SSW,198,0.0,0.0,58,0.00,,,0.00,5,Wunderground v.1.15,2013-06-19 00:49:00,
2013-06-18 18:55:00,74.3,59.5,29.59,SSW,198,0.0,0.0,60,0.00,,,0.00,0,Wunderground v.1.15,2013-06-19 00:55:00,
2013-06-18 19:01:00,73.4,59.1,29.59,SSW,198,0.0,0.0,61,0.00,,,0.00,0,Wunderground v.1.15,2013-06-19 01:01:00,
2013-06-18 19:06:00,72.2,59.8,29.59,SSW,198,0.0,4.0,65,0.00,,,0.00,0,Wunderground v.1.15,2013-06-19 01:06:00,
2013-06-18 19:12:00,71.3,58.5,29.60,SSW,198,0.0,0.0,64,0.00,,,0.00,0,Wunderground v.1.15,2013-06-19 01:12:00,
2013-06-18 19:18:00,70.6,58.7,29.62,SSW,199,0.0,2.0,66,0.00,,,0.00,0,Wunderground v.1.15,2013-06-19 01:18:00,
2013-06-18 19:24:00,69.7,55.6,29.63,SE,136,1.0,5.0,61,0.00,,,0.01,0,Wunderground v.1.15,2013-06-19 01:24:00,
2013-06-18 19:29:00,68.7,56.9,29.64,West,265,2.0,6.0,66,0.12,,,0.02,0,Wunderground v.1.15,2013-06-19 01:29:00,
2013-06-18 19:35:00,67.4,58.1,29.65,SSW,206,2.0,4.0,72,0.08,,,0.02,0,Wunderground v.1.15,2013-06-19 01:35:00,
2013-06-18 19:40:00,66.3,58.1,29.65,SW,224,1.0,1.0,75,0.05,,,0.02,0,Wunderground v.1.15,2013-06-19 01:40:00,
2013-06-18 19:45:00,65.6,58.6,29.65,SW,224,0.0,1.0,78,0.00,,,0.02,5,Wunderground v.1.15,2013-06-19 01:45:00,
2013-06-18 19:50:00,65.0,57.6,29.65,North,360,0.0,0.0,77,0.00,,,0.02,5,Wunderground v.1.15,2013-06-19 01:50:00,
2013-06-18 19:56:00,64.2,57.9,29.65,WNW,301,0.0,1.0,80,0.00,,,0.03,5,Wunderground v.1.15,2013-06-19 01:56:00,
2013-06-18 20:01:00,63.6,57.7,29.65,WNW,300,0.0,0.0,81,0.00,,,0.03,5,Wunderground v.1.15,2013-06-19 02:01:00,
2013-06-18 20:07:00,63.0,57.4,29.63,WNW,300,0.0,0.0,82,0.00,,,0.03,9,Wunderground v.1.15,2013-06-19 02:07:00,
2013-06-18 20:12:00,62.4,57.2,29.61,WSW,244,0.0,0.0,83,0.04,,,0.04,14,Wunderground v.1.15,2013-06-19 02:12:00,
2013-06-18 20:18:00,61.7,56.5,29.61,SSW,192,0.0,1.0,83,0.04,,,0.04,23,Wunderground v.1.15,2013-06-19 02:18:00,
2013-06-18 20:23:00,61.4,56.8,29.61,SSW,192,0.0,1.0,85,0.04,,,0.04,28,Wunderground v.1.15,2013-06-19 02:23:00,
2013-06-18 20:29:00,61.0,56.8,29.61,SSW,192,0.0,1.0,86,0.00,,,0.04,28,Wunderground v.1.15,2013-06-19 02:29:00,
2013-06-18 20:34:00,60.6,56.7,29.62,SSW,192,0.0,2.0,87,0.00,,,0.04,19,Wunderground v.1.15,2013-06-19 02:34:00,
2013-06-18 20:39:00,60.2,56.6,29.63,SSW,192,0.0,2.0,88,0.00,,,0.04,14,Wunderground v.1.15,2013-06-19 02:39:00,
2013-06-18 20:45:00,59.9,56.6,29.64,SSW,192,0.0,0.0,89,0.00,,,0.04,7,Wunderground v.1.15,2013-06-19 02:45:00,
2013-06-18 20:51:00,59.7,56.8,29.65,SSW,192,0.0,1.0,90,0.00,,,0.04,9,Wunderground v.1.15,2013-06-19 02:51:00,
2013-06-18 20:57:00,59.3,56.4,29.66,SSW,192,0.0,1.0,90,0.00,,,0.04,7,Wunderground v.1.15,2013-06-19 02:57:00,
2013-06-18 21:02:00,59.3,56.7,29.66,SSW,192,0.0,1.0,91,0.00,,,0.04,12,Wunderground v.1.15,2013-06-19 03:02:00,
2013-06-18 21:08:00,59.0,56.1,29.65,SSW,192,0.0,1.0,90,0.00,,,0.04,11,Wunderground v.1.15,2013-06-19 03:08:00,
2013-06-18 21:13:00,59.0,56.1,29.65,SSW,213,0.0,0.0,90,0.00,,,0.04,7,Wunderground v.1.15,2013-06-19 03:13:00,
2013-06-18 21:18:00,59.0,56.1,29.66,SSW,213,0.0,0.0,90,0.00,,,0.04,5,Wunderground v.1.15,2013-06-19 03:18:00,
2013-06-18 21:23:00,59.0,56.4,29.67,SSW,213,0.0,0.0,91,0.00,,,0.04,0,Wunderground v.1.15,2013-06-19 03:23:00,
2013-06-18 21:28:00,59.0,56.4,29.67,SSW,213,0.0,0.0,91,0.00,,,0.04,0,Wunderground v.1.15,2013-06-19 03:28:00,
2013-06-18 21:33:00,58.8,56.2,29.67,SSW,213,0.0,0.0,91,0.00,,,0.04,0,Wunderground v.1.15,2013-06-19 03:33:00,
2013-06-18 21:39:00,58.3,55.7,29.67,SSW,213,0.0,1.0,91,0.00,,,0.04,0,Wunderground v.1.15,2013-06-19 03:39:00,
2013-06-18 21:45:00,58.1,55.5,29.66,SSW,213,0.0,0.0,91,0.00,,,0.04,0,Wunderground v.1.15,2013-06-19 03:45:00,
2013-06-18 21:51:00,57.7,55.1,29.66,SSW,213,0.0,0.0,91,0.00,,,0.04,0,Wunderground v.1.15,2013-06-19 03:51:00,
2013-06-18 21:56:00,57.4,54.8,29.66,SSW,213,0.0,0.0,91,0.00,,,0.04,0,Wunderground v.1.15,2013-06-19 03:56:00,
2013-06-18 22:01:00,57.2,54.9,29.66,SSW,213,0.0,0.0,92,0.00,,,0.04,0,Wunderground v.1.15,2013-06-19 04:01:00,
2013-06-18 22:02:00,57.1,54.8,29.67,SSW,213,0.0,0.0,92,0.00,,,0.04,0,Wunderground v.1.15,2013-06-19 04:02:00,
2013-06-18 22:04:00,57.1,54.8,29.66,SSW,213,0.0,0.0,92,0.00,,,0.04,0,Wunderground v.1.15,2013-06-19 04:04:00,
2013-06-18 22:05:00,57.1,54.8,29.66,SSW,213,0.0,0.0,92,0.00,,,0.04,0,Wunderground v.1.15,2013-06-19 04:05:00,
2013-06-18 22:08:00,57.0,54.7,29.66,SSW,213,0.0,1.0,92,0.00,,,0.05,0,Wunderground v.1.15,2013-06-19 04:08:00,
2013-06-18 22:14:00,56.8,54.5,29.66,SSW,213,0.0,3.0,92,0.00,,,0.05,0,Wunderground v.1.15,2013-06-19 04:14:00,
2013-06-18 22:19:00,56.8,54.8,29.67,SSW,213,0.0,3.0,93,0.00,,,0.05,0,Wunderground v.1.15,2013-06-19 04:19:00,
2013-06-18 22:25:00,56.8,54.8,29.67,SSW,213,0.0,1.0,93,0.00,,,0.05,0,Wunderground v.1.15,2013-06-19 04:25:00,
2013-06-18 22:31:00,56.7,54.7,29.67,SSW,213,0.0,1.0,93,0.00,,,0.05,0,Wunderground v.1.15,2013-06-19 04:31:00,
2013-06-18 22:36:00,56.6,54.9,29.66,SSW,213,0.0,1.0,94,0.00,,,0.05,0,Wunderground v.1.15,2013-06-19 04:36:00,
2013-06-18 22:41:00,56.7,55.0,29.67,SSW,213,0.0,0.0,94,0.00,,,0.05,0,Wunderground v.1.15,2013-06-19 04:41:00,
2013-06-18 22:46:00,56.6,54.9,29.67,SSW,213,0.0,1.0,94,0.00,,,0.05,0,Wunderground v.1.15,2013-06-19 04:46:00,
2013-06-18 22:52:00,56.5,54.8,29.67,SSW,213,0.0,0.0,94,0.00,,,0.05,0,Wunderground v.1.15,2013-06-19 04:52:00,
2013-06-18 22:57:00,56.4,54.7,29.67,SSW,213,0.0,1.0,94,0.00,,,0.05,0,Wunderground v.1.15,2013-06-19 04:57:00,
2013-06-18 23:03:00,56.3,54.6,29.68,SSW,213,0.0,0.0,94,0.00,,,0.05,0,Wunderground v.1.15,2013-06-19 05:03:00,
2013-06-18 23:08:00,56.3,54.6,29.68,SSW,213,0.0,0.0,94,0.00,,,0.05,0,Wunderground v.1.15,2013-06-19 05:08:00,
2013-06-18 23:14:00,56.4,54.7,29.68,SSW,213,0.0,0.0,94,0.00,,,0.05,0,Wunderground v.1.15,2013-06-19 05:14:00,
2013-06-18 23:20:00,56.3,54.6,29.68,SSW,213,0.0,0.0,94,0.00,,,0.05,0,Wunderground v.1.15,2013-06-19 05:20:00,
2013-06-18 23:26:00,56.3,54.6,29.68,SSW,213,0.0,0.0,94,0.00,,,0.05,0,Wunderground v.1.15,2013-06-19 05:26:00,
2013-06-18 23:32:00,56.2,54.5,29.69,SSW,213,0.0,2.0,94,0.00,,,0.05,0,Wunderground v.1.15,2013-06-19 05:32:00,
2013-06-18 23:38:00,56.0,54.3,29.68,SSW,213,0.0,2.0,94,0.00,,,0.05,0,Wunderground v.1.15,2013-06-19 05:38:00,
2013-06-18 23:44:00,56.0,54.3,29.68,SSW,213,0.0,0.0,94,0.00,,,0.05,0,Wunderground v.1.15,2013-06-19 05:44:00,
2013-06-18 23:50:00,56.0,54.3,29.67,SSW,213,0.0,1.0,94,0.00,,,0.05,0,Wunderground v.1.15,2013-06-19 05:50:00,
2013-06-18 23:55:00,55.9,54.2,29.67,SSW,213,0.0,1.0,94,0.00,,,0.05,0,Wunderground v.1.15,2013-06-19 05:55:00,